Time;durP1;ratioP1;P1;durP2;ratioP2;P2;SDS_P1;SDS_P2;PMS_P1;PMS_P2;Temp;Humidity;BMP_temperature;BMP_pressure;BME280_temperature;BME280_humidity;BME280_pressure;Samples;Min_cycle;Max_cycle;Signal;HPM_P1;HPM_P2
2021/10/23 00:01:28;;;;;;;;;;;9.50;99.90;;;;;;5112868;27;19955;-77
2021/10/23 00:03:55;;;;;;;;;;;9.50;99.90;;;;;;5107234;27;20305;-77
2021/10/23 00:06:21;;;;;;;;;;;9.40;99.90;;;;;;5107117;27;20405;-77
2021/10/23 00:08:48;;;;;;;;;;;9.40;99.90;;;;;;5111706;27;19937;-77
2021/10/23 00:11:15;;;;;;;;;;;9.40;99.90;;;;;;5109986;27;20039;-78
2021/10/23 00:13:43;;;;;;;;;;;9.40;99.90;;;;;;5106809;27;19950;-78
2021/10/23 00:16:10;;;;;;;;;;;9.40;99.90;;;;;;5105336;27;19949;-78
2021/10/23 00:18:36;;;;;;;;;;;9.40;99.90;;;;;;5108391;27;19999;-78
2021/10/23 00:21:03;;;;;;;;;;;9.40;99.90;;;;;;5110489;27;19946;-78
2021/10/23 00:23:30;;;;;;;;;;;9.40;99.90;;;;;;5109330;27;19942;-77
2021/10/23 00:25:57;;;;;;;;;;;9.40;99.90;;;;;;5115374;27;20045;-77
2021/10/23 00:28:23;;;;;;;;;;;9.40;99.90;;;;;;5105585;27;19954;-77
2021/10/23 00:30:51;;;;;;;;;;;9.30;99.90;;;;;;5111597;27;20033;-77
2021/10/23 00:33:18;;;;;;;;;;;9.30;99.90;;;;;;5113771;27;19995;-77
2021/10/23 00:35:45;;;;;;;;;;;9.30;99.90;;;;;;5116023;27;19942;-77
2021/10/23 00:38:12;;;;;;;;;;;9.30;99.90;;;;;;5105262;27;19954;-78
2021/10/23 00:40:38;;;;;;;;;;;9.30;99.90;;;;;;5103434;27;19956;-78
2021/10/23 00:43:05;;;;;;;;;;;9.30;99.90;;;;;;5102052;28;19938;-77
2021/10/23 00:45:32;;;;;;;;;;;9.30;99.90;;;;;;5101701;27;20426;-77
2021/10/23 00:48:00;;;;;;;;;;;9.30;99.90;;;;;;5103898;27;19944;-78
2021/10/23 00:50:27;;;;;;;;;;;9.30;99.90;;;;;;5105179;27;19945;-78
2021/10/23 00:52:54;;;;;;;;;;;9.30;99.90;;;;;;5108535;27;19946;-77
2021/10/23 00:55:21;;;;;;;;;;;9.30;99.90;;;;;;5106448;28;20317;-78
2021/10/23 00:57:48;;;;;;;;;;;9.30;99.90;;;;;;5111284;28;19937;-78
2021/10/23 01:00:15;;;;;;;;;;;9.30;99.90;;;;;;5105111;28;19958;-74
2021/10/23 01:02:41;;;;;;;;;;;9.20;99.90;;;;;;5109859;28;19941;-76
2021/10/23 01:05:10;;;;;;;;;;;9.20;99.90;;;;;;5108678;28;20027;-75
2021/10/23 01:07:37;;;;;;;;;;;9.10;99.90;;;;;;5109944;28;19938;-76
2021/10/23 01:10:05;;;;;;;;;;;9.10;99.90;;;;;;5106038;28;19944;-77
2021/10/23 01:12:32;;;;;;;;;;;9.00;99.90;;;;;;5099660;28;19989;-76
2021/10/23 01:14:59;;;;;;;;;;;9.00;99.90;;;;;;5110967;28;19944;-75
2021/10/23 01:17:25;;;;;;;;;;;9.00;99.90;;;;;;5108685;28;19937;-75
2021/10/23 01:19:54;;;;;;;;;;;9.00;99.90;;;;;;5108457;28;19957;-74
2021/10/23 01:22:27;;;;;;;;;;;9.00;99.90;;;;;;5098820;28;19961;-73
2021/10/23 01:24:54;;;;;;;;;;;9.00;99.90;;;;;;5109497;28;19962;-75
2021/10/23 01:27:20;;;;;;;;;;;9.10;99.90;;;;;;5107126;28;20052;-75
2021/10/23 01:29:47;;;;;;;;;;;9.10;99.90;;;;;;5101300;28;20024;-75
2021/10/23 01:32:14;;;;;;;;;;;9.10;99.90;;;;;;5108133;28;19937;-73
2021/10/23 01:34:40;;;;;;;;;;;9.10;99.90;;;;;;5108038;28;19944;-74
2021/10/23 01:37:08;;;;;;;;;;;9.10;99.90;;;;;;5105321;28;19945;-74
2021/10/23 01:39:35;;;;;;;;;;;9.10;99.90;;;;;;5103611;28;19954;-73
2021/10/23 01:42:03;;;;;;;;;;;9.00;99.90;;;;;;5101596;28;20308;-74
2021/10/23 01:44:30;;;;;;;;;;;9.00;99.90;;;;;;5120186;28;20394;-74
2021/10/23 01:46:57;;;;;;;;;;;9.00;99.90;;;;;;5116563;27;19950;-73
2021/10/23 01:49:24;;;;;;;;;;;9.00;99.90;;;;;;5112355;27;20028;-75
2021/10/23 01:51:50;;;;;;;;;;;8.90;99.90;;;;;;5105335;27;19936;-75
2021/10/23 01:54:18;;;;;;;;;;;8.90;99.90;;;;;;5118563;27;19940;-75
2021/10/23 01:56:45;;;;;;;;;;;8.90;99.90;;;;;;5115436;27;21649;-74
2021/10/23 01:59:12;;;;;;;;;;;8.80;99.90;;;;;;5119685;27;19957;-74
2021/10/23 02:01:38;;;;;;;;;;;8.80;99.90;;;;;;5111827;27;19934;-74
2021/10/23 02:04:05;;;;;;;;;;;8.80;99.90;;;;;;5107335;27;19941;-74
2021/10/23 02:06:32;;;;;;;;;;;8.70;99.90;;;;;;5111116;28;19947;-74
2021/10/23 02:08:59;;;;;;;;;;;8.70;99.90;;;;;;5112460;27;19939;-74
2021/10/23 02:11:27;;;;;;;;;;;8.70;99.90;;;;;;5100097;28;19945;-75
2021/10/23 02:13:53;;;;;;;;;;;8.60;99.90;;;;;;5106843;27;19950;-75
2021/10/23 02:16:20;;;;;;;;;;;8.50;99.90;;;;;;5118403;27;20034;-75
2021/10/23 02:18:47;;;;;;;;;;;8.40;99.90;;;;;;5118339;27;19956;-74
2021/10/23 02:21:13;;;;;;;;;;;8.30;99.90;;;;;;5106232;27;19937;-74
2021/10/23 02:23:40;;;;;;;;;;;8.30;99.90;;;;;;5107670;27;19946;-73
2021/10/23 02:26:07;;;;;;;;;;;8.20;99.90;;;;;;5113565;27;19947;-73
2021/10/23 02:28:36;;;;;;;;;;;8.10;99.90;;;;;;5120053;27;19944;-73
2021/10/23 02:31:03;;;;;;;;;;;8.10;99.90;;;;;;5108141;27;19947;-73
2021/10/23 02:33:30;;;;;;;;;;;8.00;99.90;;;;;;5111635;27;20024;-74
2021/10/23 02:35:56;;;;;;;;;;;8.00;99.90;;;;;;5108608;27;19937;-74
2021/10/23 02:38:23;;;;;;;;;;;7.90;99.90;;;;;;5110688;27;20297;-74
2021/10/23 02:40:50;;;;;;;;;;;7.80;99.90;;;;;;5108452;27;19938;-74
2021/10/23 02:43:17;;;;;;;;;;;7.80;99.90;;;;;;5103972;27;19939;-74
2021/10/23 02:45:45;;;;;;;;;;;7.70;99.90;;;;;;5108637;27;20018;-73
2021/10/23 02:48:11;;;;;;;;;;;7.60;99.90;;;;;;5106469;27;19948;-74
2021/10/23 02:50:38;;;;;;;;;;;7.50;99.90;;;;;;5118736;27;19943;-75
2021/10/23 02:53:05;;;;;;;;;;;7.30;99.90;;;;;;5108174;27;19932;-74
2021/10/23 02:55:31;;;;;;;;;;;7.30;99.90;;;;;;5103714;27;19942;-74
2021/10/23 02:57:58;;;;;;;;;;;7.30;99.90;;;;;;5110255;27;20457;-74
2021/10/23 03:00:25;;;;;;;;;;;7.30;99.90;;;;;;5120309;27;20051;-74
2021/10/23 03:02:53;;;;;;;;;;;7.30;99.90;;;;;;5110073;27;19937;-74
2021/10/23 03:05:20;;;;;;;;;;;7.40;99.90;;;;;;5115211;27;19932;-73
2021/10/23 03:07:46;;;;;;;;;;;7.40;99.90;;;;;;5109500;27;20407;-73
2021/10/23 03:10:13;;;;;;;;;;;7.40;99.90;;;;;;5109106;27;19924;-73
2021/10/23 03:12:40;;;;;;;;;;;7.40;99.90;;;;;;5108838;27;19929;-74
2021/10/23 03:15:07;;;;;;;;;;;7.40;99.90;;;;;;5118516;27;19924;-74
2021/10/23 03:17:34;;;;;;;;;;;7.30;99.90;;;;;;5102331;27;19931;-74
2021/10/23 03:20:02;;;;;;;;;;;7.20;99.90;;;;;;5120622;27;19924;-74
2021/10/23 03:22:29;;;;;;;;;;;7.10;99.90;;;;;;5108856;27;19930;-74
2021/10/23 03:24:55;;;;;;;;;;;7.10;99.90;;;;;;5111777;27;20027;-74
2021/10/23 03:27:23;;;;;;;;;;;7.00;99.90;;;;;;5109688;27;19924;-74
2021/10/23 03:29:50;;;;;;;;;;;6.90;99.90;;;;;;5109655;27;20014;-74
2021/10/23 03:32:17;;;;;;;;;;;6.70;99.90;;;;;;5104616;28;19949;-74
2021/10/23 03:34:43;;;;;;;;;;;6.70;99.90;;;;;;5105798;27;19924;-74
2021/10/23 03:37:12;;;;;;;;;;;6.60;99.90;;;;;;5109001;27;19923;-74
2021/10/23 03:39:38;;;;;;;;;;;6.60;99.90;;;;;;5107315;27;19924;-75
2021/10/23 03:42:05;;;;;;;;;;;6.60;99.90;;;;;;5109390;27;19934;-73
2021/10/23 03:44:32;;;;;;;;;;;6.50;99.90;;;;;;5108323;28;19924;-74
2021/10/23 03:46:59;;;;;;;;;;;6.60;99.90;;;;;;5098235;27;20011;-73
2021/10/23 03:49:25;;;;;;;;;;;6.60;99.90;;;;;;5105395;27;19924;-74
2021/10/23 03:51:52;;;;;;;;;;;6.50;99.90;;;;;;5107360;27;20026;-74
2021/10/23 03:54:20;;;;;;;;;;;6.40;99.90;;;;;;5107585;27;19931;-74
2021/10/23 03:56:46;;;;;;;;;;;6.40;99.90;;;;;;5108497;28;20404;-74
2021/10/23 03:59:13;;;;;;;;;;;6.30;99.90;;;;;;5118355;27;19923;-75
2021/10/23 04:01:40;;;;;;;;;;;6.20;99.90;;;;;;5099327;28;20322;-74
2021/10/23 04:04:08;;;;;;;;;;;6.10;99.90;;;;;;5107099;27;20571;-74
2021/10/23 04:06:34;;;;;;;;;;;6.10;99.90;;;;;;5112269;27;20023;-73
2021/10/23 04:09:01;;;;;;;;;;;6.10;99.90;;;;;;5105846;27;19955;-74
2021/10/23 04:11:29;;;;;;;;;;;6.10;99.90;;;;;;5107428;27;19924;-74
2021/10/23 04:13:56;;;;;;;;;;;6.10;99.90;;;;;;5112112;27;20147;-73
2021/10/23 04:16:23;;;;;;;;;;;6.00;99.90;;;;;;5108813;27;19930;-74
2021/10/23 04:18:49;;;;;;;;;;;6.00;99.90;;;;;;5111514;27;20310;-74
2021/10/23 04:21:16;;;;;;;;;;;6.00;99.90;;;;;;5106175;27;20374;-73
2021/10/23 04:23:43;;;;;;;;;;;6.00;99.90;;;;;;5117596;27;19924;-74
2021/10/23 04:26:10;;;;;;;;;;;6.10;99.90;;;;;;5116669;27;19924;-74
2021/10/23 04:28:38;;;;;;;;;;;6.10;99.90;;;;;;5108574;27;19923;-74
2021/10/23 04:31:04;;;;;;;;;;;6.10;99.90;;;;;;5105235;27;19924;-74
2021/10/23 04:33:31;;;;;;;;;;;6.20;99.90;;;;;;5098237;27;19924;-73
2021/10/23 04:35:58;;;;;;;;;;;6.10;99.90;;;;;;5100530;27;19924;-74
2021/10/23 04:38:25;;;;;;;;;;;6.00;99.90;;;;;;5116860;27;19931;-73
2021/10/23 04:40:51;;;;;;;;;;;6.00;99.90;;;;;;5105013;27;19928;-74
2021/10/23 04:43:18;;;;;;;;;;;6.00;99.90;;;;;;5106355;27;20018;-74
2021/10/23 04:45:46;;;;;;;;;;;5.90;99.90;;;;;;5104268;27;19923;-74
2021/10/23 04:48:13;;;;;;;;;;;5.80;99.90;;;;;;5110247;27;19930;-74
2021/10/23 04:50:40;;;;;;;;;;;5.80;99.90;;;;;;5110722;27;20279;-74
2021/10/23 04:53:06;;;;;;;;;;;5.80;99.90;;;;;;5107110;28;19924;-74
2021/10/23 04:55:33;;;;;;;;;;;5.80;99.90;;;;;;5105750;28;19938;-74
2021/10/23 04:58:00;;;;;;;;;;;5.90;99.90;;;;;;5106903;28;20324;-74
2021/10/23 05:00:26;;;;;;;;;;;5.80;99.90;;;;;;5105496;28;19924;-73
2021/10/23 05:02:54;;;;;;;;;;;5.80;99.90;;;;;;5102271;28;19931;-73
2021/10/23 05:05:21;;;;;;;;;;;5.80;99.90;;;;;;5104672;28;19930;-73
2021/10/23 05:07:48;;;;;;;;;;;5.80;99.90;;;;;;5104044;28;19932;-73
2021/10/23 05:10:14;;;;;;;;;;;5.70;99.90;;;;;;5108687;28;19930;-74
2021/10/23 05:12:41;;;;;;;;;;;5.70;99.90;;;;;;5107394;28;19973;-73
2021/10/23 05:15:08;;;;;;;;;;;5.70;99.90;;;;;;5110053;28;19931;-73
2021/10/23 05:17:35;;;;;;;;;;;5.70;99.90;;;;;;5100103;28;19931;-73
2021/10/23 05:20:04;;;;;;;;;;;5.70;99.90;;;;;;5108978;28;19930;-73
2021/10/23 05:22:30;;;;;;;;;;;5.70;99.90;;;;;;5108959;27;19924;-73
2021/10/23 05:24:57;;;;;;;;;;;5.60;99.90;;;;;;5117879;27;19924;-73
2021/10/23 05:27:24;;;;;;;;;;;5.70;99.90;;;;;;5115713;27;19929;-73
2021/10/23 05:29:50;;;;;;;;;;;5.60;99.90;;;;;;5111493;27;19923;-73
2021/10/23 05:32:17;;;;;;;;;;;5.60;99.90;;;;;;5098750;28;19932;-73
2021/10/23 05:34:45;;;;;;;;;;;5.50;99.90;;;;;;5109705;27;20398;-74
2021/10/23 05:37:13;;;;;;;;;;;5.50;99.90;;;;;;5107836;27;19924;-74
2021/10/23 05:39:40;;;;;;;;;;;5.60;99.90;;;;;;5112095;27;20427;-74
2021/10/23 05:42:07;;;;;;;;;;;5.70;99.90;;;;;;5109477;27;20019;-73
2021/10/23 05:44:33;;;;;;;;;;;5.70;99.90;;;;;;5119932;27;19923;-74
2021/10/23 05:47:00;;;;;;;;;;;5.70;99.90;;;;;;5119446;27;19924;-73
2021/10/23 05:49:27;;;;;;;;;;;5.80;99.90;;;;;;5118691;27;20010;-73
2021/10/23 05:51:54;;;;;;;;;;;5.70;99.90;;;;;;5111877;27;19934;-73
2021/10/23 05:54:22;;;;;;;;;;;5.70;99.90;;;;;;5116906;27;19939;-73
2021/10/23 05:56:49;;;;;;;;;;;5.70;99.90;;;;;;5112691;27;19924;-73
2021/10/23 05:59:16;;;;;;;;;;;5.70;99.90;;;;;;5122310;27;19929;-73
2021/10/23 06:01:44;;;;;;;;;;;5.80;99.90;;;;;;5105189;27;19924;-72
2021/10/23 06:04:11;;;;;;;;;;;5.90;99.90;;;;;;5111315;27;19930;-73
2021/10/23 06:06:38;;;;;;;;;;;5.80;99.90;;;;;;5103405;27;19928;-73
2021/10/23 06:09:05;;;;;;;;;;;5.70;99.90;;;;;;5113221;27;19966;-72
2021/10/23 06:11:33;;;;;;;;;;;5.70;99.90;;;;;;5110830;27;19951;-73
2021/10/23 06:14:00;;;;;;;;;;;5.70;99.90;;;;;;5112280;27;19930;-73
2021/10/23 06:16:27;;;;;;;;;;;5.80;99.90;;;;;;5104523;28;20391;-72
2021/10/23 06:18:54;;;;;;;;;;;5.80;99.90;;;;;;5110877;27;19993;-72
2021/10/23 06:21:20;;;;;;;;;;;5.80;99.90;;;;;;5114788;27;19923;-72
2021/10/23 06:23:47;;;;;;;;;;;5.80;99.90;;;;;;5117406;27;19927;-72
2021/10/23 06:26:14;;;;;;;;;;;5.80;99.90;;;;;;5113495;27;19924;-74
2021/10/23 06:28:42;;;;;;;;;;;5.80;99.90;;;;;;5107268;27;19959;-74
2021/10/23 06:31:09;;;;;;;;;;;5.90;99.90;;;;;;5109596;27;20374;-73
2021/10/23 06:33:35;;;;;;;;;;;5.90;99.90;;;;;;5109569;27;19923;-73
2021/10/23 06:36:02;;;;;;;;;;;5.90;99.90;;;;;;5120177;27;20556;-74
2021/10/23 06:38:29;;;;;;;;;;;5.90;99.90;;;;;;5108543;27;19992;-75
2021/10/23 06:40:56;;;;;;;;;;;6.00;99.90;;;;;;5111189;27;19943;-75
2021/10/23 06:43:24;;;;;;;;;;;6.10;99.90;;;;;;5106909;27;22530;-75
2021/10/23 06:45:52;;;;;;;;;;;6.20;99.90;;;;;;5103597;27;19924;-74
2021/10/23 06:48:19;;;;;;;;;;;6.40;99.90;;;;;;5109312;27;19946;-75
2021/10/23 06:50:46;;;;;;;;;;;6.50;99.90;;;;;;5107361;27;20019;-74
2021/10/23 06:53:12;;;;;;;;;;;6.60;99.90;;;;;;5114876;27;20401;-74
2021/10/23 06:55:39;;;;;;;;;;;6.70;99.90;;;;;;5103463;27;19931;-73
2021/10/23 06:58:05;;;;;;;;;;;6.80;99.90;;;;;;5105606;27;20359;-73
2021/10/23 07:00:32;;;;;;;;;;;6.90;99.90;;;;;;5106461;27;19928;-73
2021/10/23 07:03:00;;;;;;;;;;;7.00;99.90;;;;;;5107758;27;19930;-72
2021/10/23 07:05:30;;;;;;;;;;;7.00;99.90;;;;;;5104074;27;19955;-74
2021/10/23 07:07:57;;;;;;;;;;;7.10;99.90;;;;;;5110842;27;20339;-73
2021/10/23 07:10:23;;;;;;;;;;;7.10;99.90;;;;;;5112774;27;20500;-72
2021/10/23 07:12:51;;;;;;;;;;;7.20;99.90;;;;;;5105562;27;19980;-73
2021/10/23 07:15:17;;;;;;;;;;;7.20;99.90;;;;;;5121818;27;19993;-72
2021/10/23 07:17:44;;;;;;;;;;;7.30;99.90;;;;;;5109300;27;20011;-72
2021/10/23 07:20:13;;;;;;;;;;;7.40;99.90;;;;;;5117515;27;19983;-73
2021/10/23 07:22:40;;;;;;;;;;;7.50;99.90;;;;;;5111474;27;19989;-73
2021/10/23 07:25:07;;;;;;;;;;;7.60;99.90;;;;;;5111094;27;20606;-69
2021/10/23 07:27:34;;;;;;;;;;;7.70;99.90;;;;;;5101602;27;20088;-69
2021/10/23 07:30:01;;;;;;;;;;;7.80;99.90;;;;;;5111410;27;19999;-72
2021/10/23 07:32:28;;;;;;;;;;;7.90;99.90;;;;;;5109838;27;20023;-70
2021/10/23 07:34:55;;;;;;;;;;;8.00;99.90;;;;;;5110879;27;19961;-72
2021/10/23 07:37:23;;;;;;;;;;;8.00;99.90;;;;;;5118172;27;20015;-72
2021/10/23 07:39:49;;;;;;;;;;;8.10;99.90;;;;;;5111288;27;19923;-68
2021/10/23 07:42:16;;;;;;;;;;;8.20;99.90;;;;;;5106825;27;19924;-73
2021/10/23 07:44:43;;;;;;;;;;;8.20;99.90;;;;;;5105487;27;19931;-72
2021/10/23 07:47:10;;;;;;;;;;;8.30;99.90;;;;;;5106892;27;19965;-72
2021/10/23 07:49:36;;;;;;;;;;;8.30;99.90;;;;;;5107550;27;19924;-73
2021/10/23 07:52:04;;;;;;;;;;;8.40;99.90;;;;;;5117228;27;19946;-75
2021/10/23 07:54:32;;;;;;;;;;;8.30;99.90;;;;;;5106425;27;20023;-73
2021/10/23 07:56:58;;;;;;;;;;;8.40;99.90;;;;;;5091328;27;19938;-73
2021/10/23 07:59:26;;;;;;;;;;;8.50;99.90;;;;;;5094945;27;19971;-72
2021/10/23 08:01:53;;;;;;;;;;;8.60;99.90;;;;;;5091848;27;19997;-71
2021/10/23 08:04:21;;;;;;;;;;;8.60;99.90;;;;;;5094458;27;20018;-72
2021/10/23 08:06:47;;;;;;;;;;;8.70;99.90;;;;;;5094897;27;20050;-73
2021/10/23 08:09:14;;;;;;;;;;;8.70;99.90;;;;;;5093800;27;20394;-76
2021/10/23 08:11:43;;;;;;;;;;;8.70;99.90;;;;;;5101058;27;20266;-74
2021/10/23 08:14:10;;;;;;;;;;;8.70;99.90;;;;;;5093693;27;20329;-74
2021/10/23 08:16:37;;;;;;;;;;;8.80;99.90;;;;;;5092895;27;19923;-73
2021/10/23 08:19:04;;;;;;;;;;;8.80;99.90;;;;;;5092291;27;19935;-74
2021/10/23 08:21:31;;;;;;;;;;;8.80;99.90;;;;;;5091227;27;19932;-72
2021/10/23 08:23:57;;;;;;;;;;;8.80;99.90;;;;;;5093983;27;19932;-74
2021/10/23 08:26:24;;;;;;;;;;;8.90;99.90;;;;;;5092628;27;20005;-73
2021/10/23 08:28:52;;;;;;;;;;;9.00;99.90;;;;;;5093234;27;19924;-72
2021/10/23 08:31:19;;;;;;;;;;;9.00;99.90;;;;;;5091189;27;19928;-72
2021/10/23 08:33:45;;;;;;;;;;;9.00;99.90;;;;;;5094367;27;19938;-75
2021/10/23 08:36:12;;;;;;;;;;;9.10;99.90;;;;;;5092754;27;19930;-72
2021/10/23 08:38:39;;;;;;;;;;;9.20;99.90;;;;;;5093152;27;19935;-72
2021/10/23 08:41:06;;;;;;;;;;;9.20;99.90;;;;;;5082839;27;19928;-75
2021/10/23 08:43:34;;;;;;;;;;;9.20;99.90;;;;;;5088873;27;19928;-73
2021/10/23 08:46:02;;;;;;;;;;;9.40;99.90;;;;;;5091589;27;19932;-73
2021/10/23 08:48:32;;;;;;;;;;;9.50;99.90;;;;;;5094613;27;19933;-73
2021/10/23 08:51:00;;;;;;;;;;;9.60;99.90;;;;;;5092613;27;19923;-72
2021/10/23 08:53:28;;;;;;;;;;;9.60;99.90;;;;;;5091777;27;19928;-73
2021/10/23 08:55:55;;;;;;;;;;;9.70;99.90;;;;;;5090717;28;20011;-71
2021/10/23 08:58:21;;;;;;;;;;;9.70;99.90;;;;;;5091370;27;19923;-73
2021/10/23 09:00:48;;;;;;;;;;;9.80;99.90;;;;;;5090123;27;20432;-73
2021/10/23 09:03:17;;;;;;;;;;;9.90;99.90;;;;;;5093186;28;20013;-70
2021/10/23 09:05:43;;;;;;;;;;;10.00;99.90;;;;;;5089450;28;19956;-73
2021/10/23 09:08:13;;;;;;;;;;;10.00;99.90;;;;;;5091315;28;19940;-73
2021/10/23 09:10:41;;;;;;;;;;;10.10;99.90;;;;;;5092592;28;20030;-69
2021/10/23 09:13:08;;;;;;;;;;;10.20;99.90;;;;;;5099784;28;19938;-72
2021/10/23 09:15:36;;;;;;;;;;;10.20;99.90;;;;;;5098707;28;20068;-72
2021/10/23 09:18:03;;;;;;;;;;;10.30;99.90;;;;;;5095068;28;21933;-72
2021/10/23 09:20:36;;;;;;;;;;;10.30;99.90;;;;;;5108717;28;20015;-72
2021/10/23 09:23:03;;;;;;;;;;;10.40;99.90;;;;;;5098637;28;19942;-72
2021/10/23 09:25:30;;;;;;;;;;;10.50;99.90;;;;;;5103715;28;19948;-72
2021/10/23 09:28:00;;;;;;;;;;;10.50;99.90;;;;;;5097537;28;19984;-72
2021/10/23 09:30:31;;;;;;;;;;;10.70;99.90;;;;;;5104025;28;19950;-75
2021/10/23 09:32:59;;;;;;;;;;;10.80;99.90;;;;;;5099394;28;20015;-72
2021/10/23 09:35:26;;;;;;;;;;;10.80;99.90;;;;;;5116772;28;19945;-73
2021/10/23 09:37:55;;;;;;;;;;;11.00;99.90;;;;;;5102336;28;20004;-71
2021/10/23 09:40:23;;;;;;;;;;;11.00;99.90;;;;;;5097188;28;20036;-72
2021/10/23 09:43:04;;;;;;;;;;;11.10;99.90;;;;;;5109893;28;19962;-71
2021/10/23 09:45:30;;;;;;;;;;;11.20;99.90;;;;;;5116706;28;19946;-70
2021/10/23 09:48:04;;;;;;;;;;;11.40;99.90;;;;;;5108526;28;19951;-73
2021/10/23 09:50:31;;;;;;;;;;;11.50;99.90;;;;;;5100980;28;19940;-73
2021/10/23 09:52:59;;;;;;;;;;;11.30;99.90;;;;;;5106294;28;19948;-72
2021/10/23 09:55:26;;;;;;;;;;;11.20;99.90;;;;;;5115759;28;20504;-73
2021/10/23 09:58:05;;;;;;;;;;;11.20;99.90;;;;;;5106212;28;19951;-75
2021/10/23 10:00:32;;;;;;;;;;;11.30;99.90;;;;;;5093844;28;19943;-73
2021/10/23 10:02:59;;;;;;;;;;;11.40;99.90;;;;;;5098119;28;20625;-75
2021/10/23 10:05:26;;;;;;;;;;;11.50;99.90;;;;;;5092664;28;20381;-74
2021/10/23 10:07:53;;;;;;;;;;;11.50;99.90;;;;;;5101137;27;19944;-74
2021/10/23 10:10:21;;;;;;;;;;;11.50;99.90;;;;;;5111990;27;19948;-74
2021/10/23 10:12:48;;;;;;;;;;;11.50;99.90;;;;;;5110815;27;19946;-74
2021/10/23 10:15:14;;;;;;;;;;;11.70;99.90;;;;;;5106554;27;19945;-74
2021/10/23 10:17:41;;;;;;;;;;;11.90;99.90;;;;;;5117964;27;19946;-75
2021/10/23 10:20:10;;;;;;;;;;;12.20;99.90;;;;;;5105435;27;19935;-76
2021/10/23 10:22:37;;;;;;;;;;;12.30;99.90;;;;;;5099438;27;19980;-72
2021/10/23 10:25:16;;;;;;;;;;;12.30;99.90;;;;;;5102517;27;19946;-72
2021/10/23 10:27:45;;;;;;;;;;;12.40;99.90;;;;;;5102638;27;22112;-73
2021/10/23 10:30:20;;;;;;;;;;;12.30;99.90;;;;;;5100866;27;19943;-74
2021/10/23 10:32:46;;;;;;;;;;;12.40;99.90;;;;;;5101381;27;20028;-72
2021/10/23 10:43:33;;;;;;;;;;;12.50;99.90;;;;;;5100407;27;19940;-74
2021/10/23 10:46:02;;;;;;;;;;;12.50;99.90;;;;;;5102486;27;19947;-74
2021/10/23 10:48:37;;;;;;;;;;;12.50;99.90;;;;;;5100049;27;19970;-75
2021/10/23 10:51:18;;;;;;;;;;;12.40;99.90;;;;;;5096679;27;20370;-73
2021/10/23 10:54:01;;;;;;;;;;;12.50;99.90;;;;;;5095252;27;19951;-73
2021/10/23 10:56:40;;;;;;;;;;;12.60;99.90;;;;;;5106920;27;19950;-75
2021/10/23 10:59:08;;;;;;;;;;;12.70;99.90;;;;;;5099485;27;20009;-74
2021/10/23 11:01:35;;;;;;;;;;;12.90;99.90;;;;;;5098698;27;19961;-74
2021/10/23 11:04:05;;;;;;;;;;;13.00;99.90;;;;;;5103809;27;19937;-74
2021/10/23 11:07:01;;;;;;;;;;;13.20;99.90;;;;;;5099180;27;20395;-73
2021/10/23 11:09:42;;;;;;;;;;;13.20;99.90;;;;;;5103025;27;19943;-74
2021/10/23 11:12:30;;;;;;;;;;;13.30;99.90;;;;;;5103696;27;20440;-74
2021/10/23 11:14:58;;;;;;;;;;;13.20;99.90;;;;;;5094394;27;19964;-75
2021/10/23 11:17:25;;;;;;;;;;;13.30;99.90;;;;;;5102175;27;19959;-74
2021/10/23 11:19:53;;;;;;;;;;;13.30;99.90;;;;;;5094086;27;20038;-74
2021/10/23 11:22:21;;;;;;;;;;;13.30;99.90;;;;;;5094335;27;19971;-73
2021/10/23 11:24:49;;;;;;;;;;;13.20;99.90;;;;;;5097301;27;19957;-74
2021/10/23 11:27:30;;;;;;;;;;;13.40;99.90;;;;;;5096642;27;20942;-73
2021/10/23 11:30:09;;;;;;;;;;;13.50;99.90;;;;;;5098121;27;20015;-74
2021/10/23 11:32:36;;;;;;;;;;;13.50;99.90;;;;;;5102472;27;19951;-73
2021/10/23 11:35:03;;;;;;;;;;;13.50;99.90;;;;;;5099174;27;20205;-73
2021/10/23 11:37:30;;;;;;;;;;;13.70;99.90;;;;;;5111157;27;20032;-74
2021/10/23 11:39:58;;;;;;;;;;;13.80;99.90;;;;;;5112601;27;20034;-73
2021/10/23 11:42:26;;;;;;;;;;;13.90;99.90;;;;;;5106472;27;19972;-73
2021/10/23 11:44:53;;;;;;;;;;;14.10;99.90;;;;;;5120391;27;20020;-74
2021/10/23 11:47:26;;;;;;;;;;;14.20;99.90;;;;;;5108696;27;19949;-73
2021/10/23 11:49:54;;;;;;;;;;;14.40;99.90;;;;;;5104779;27;19952;-73
2021/10/23 11:52:24;;;;;;;;;;;14.50;99.90;;;;;;5105075;27;19961;-73
2021/10/23 11:54:51;;;;;;;;;;;14.30;99.90;;;;;;5105782;27;19987;-73
2021/10/23 11:57:30;;;;;;;;;;;14.30;99.90;;;;;;5095915;27;19944;-73
2021/10/23 11:59:57;;;;;;;;;;;14.40;99.90;;;;;;5107894;27;19944;-73
2021/10/23 12:02:36;;;;;;;;;;;14.50;99.90;;;;;;5103623;27;20380;-73
2021/10/23 12:05:17;;;;;;;;;;;14.50;99.90;;;;;;5113072;27;19948;-73
2021/10/23 12:07:43;;;;;;;;;;;14.60;99.90;;;;;;5109057;27;19937;-73
2021/10/23 12:10:10;;;;;;;;;;;14.50;99.90;;;;;;5112535;27;19984;-72
2021/10/23 12:12:38;;;;;;;;;;;14.50;99.90;;;;;;5105950;27;19995;-73
2021/10/23 12:15:15;;;;;;;;;;;14.50;99.90;;;;;;5114954;27;19944;-73
2021/10/23 12:17:43;;;;;;;;;;;14.60;99.90;;;;;;5104215;27;19942;-73
2021/10/23 12:20:14;;;;;;;;;;;14.80;99.90;;;;;;5105481;27;19940;-73
2021/10/23 12:22:41;;;;;;;;;;;14.90;99.90;;;;;;5110263;27;21606;-73
2021/10/23 12:25:10;;;;;;;;;;;14.90;99.90;;;;;;5109589;27;20043;-73
2021/10/23 12:27:37;;;;;;;;;;;14.90;99.90;;;;;;5102140;27;20040;-73
2021/10/23 12:30:05;;;;;;;;;;;14.90;99.90;;;;;;5101852;27;20345;-74
2021/10/23 12:32:35;;;;;;;;;;;15.00;99.90;;;;;;5111906;27;19937;-73
2021/10/23 12:35:08;;;;;;;;;;;15.10;99.40;;;;;;5112553;27;20023;-73
2021/10/23 12:37:39;;;;;;;;;;;15.10;98.20;;;;;;5118950;27;19944;-73
2021/10/23 12:40:09;;;;;;;;;;;15.00;98.30;;;;;;5114006;27;19938;-73
2021/10/23 12:42:36;;;;;;;;;;;15.00;97.70;;;;;;5106328;27;19966;-74
2021/10/23 12:45:04;;;;;;;;;;;14.80;97.00;;;;;;5109457;27;20383;-73
2021/10/23 12:47:31;;;;;;;;;;;14.80;97.50;;;;;;5111617;27;20305;-73
2021/10/23 12:49:58;;;;;;;;;;;14.70;97.40;;;;;;5103829;27;19957;-73
2021/10/23 12:52:28;;;;;;;;;;;14.80;97.90;;;;;;5098053;27;20435;-74
2021/10/23 12:54:54;;;;;;;;;;;15.00;98.10;;;;;;5088293;27;19945;-73
2021/10/23 12:57:21;;;;;;;;;;;15.10;97.50;;;;;;5087844;28;20061;-74
2021/10/23 12:59:48;;;;;;;;;;;15.10;97.60;;;;;;5092079;27;19944;-73
2021/10/23 13:02:14;;;;;;;;;;;15.20;97.70;;;;;;5100167;28;19956;-73
2021/10/23 13:04:42;;;;;;;;;;;15.20;97.50;;;;;;5089949;28;20059;-73
2021/10/23 13:07:09;;;;;;;;;;;15.30;97.50;;;;;;5094862;28;19944;-73
2021/10/23 13:09:37;;;;;;;;;;;15.40;96.80;;;;;;5092367;28;19943;-73
2021/10/23 13:12:04;;;;;;;;;;;15.30;95.70;;;;;;5092354;28;19942;-73
2021/10/23 13:14:31;;;;;;;;;;;15.20;95.60;;;;;;5093217;28;19983;-74
2021/10/23 13:16:58;;;;;;;;;;;15.10;95.30;;;;;;5091951;28;20035;-72
2021/10/23 13:19:24;;;;;;;;;;;15.20;95.40;;;;;;5090187;28;19964;-73
2021/10/23 13:21:51;;;;;;;;;;;15.30;95.30;;;;;;5091267;28;20303;-72
2021/10/23 13:24:18;;;;;;;;;;;15.30;95.20;;;;;;5092041;28;19941;-72
2021/10/23 13:26:46;;;;;;;;;;;15.30;94.20;;;;;;5091617;28;20057;-72
2021/10/23 13:29:12;;;;;;;;;;;15.30;91.60;;;;;;5092864;28;19943;-72
2021/10/23 13:31:39;;;;;;;;;;;15.40;92.10;;;;;;5091758;28;20047;-72
2021/10/23 13:34:06;;;;;;;;;;;15.50;92.00;;;;;;5091824;28;20457;-72
2021/10/23 13:36:32;;;;;;;;;;;15.30;92.30;;;;;;5095468;28;19940;-73
2021/10/23 13:38:59;;;;;;;;;;;15.40;93.00;;;;;;5093851;28;19950;-74
2021/10/23 13:41:26;;;;;;;;;;;15.60;91.50;;;;;;5088506;28;20008;-71
2021/10/23 13:43:54;;;;;;;;;;;15.60;91.10;;;;;;5097264;27;19959;-72
2021/10/23 13:46:20;;;;;;;;;;;15.70;90.50;;;;;;5094176;27;19966;-73
2021/10/23 13:48:47;;;;;;;;;;;15.60;87.70;;;;;;5095654;27;20452;-73
2021/10/23 13:51:14;;;;;;;;;;;15.80;87.60;;;;;;5093452;27;19951;-72
2021/10/23 13:53:40;;;;;;;;;;;15.90;83.10;;;;;;5092024;27;19961;-73
2021/10/23 13:56:07;;;;;;;;;;;15.90;81.00;;;;;;5094457;27;20051;-72
2021/10/23 13:58:34;;;;;;;;;;;15.60;81.60;;;;;;5094797;27;19950;-73
2021/10/23 14:01:02;;;;;;;;;;;15.50;82.50;;;;;;5094997;27;19948;-73
2021/10/23 14:03:28;;;;;;;;;;;15.40;84.50;;;;;;5100183;27;19950;-72
2021/10/23 14:05:55;;;;;;;;;;;15.40;85.60;;;;;;5099225;27;19948;-73
2021/10/23 14:08:22;;;;;;;;;;;15.30;84.60;;;;;;5095950;27;20200;-73
2021/10/23 14:10:48;;;;;;;;;;;15.00;85.60;;;;;;5093079;27;20372;-73
2021/10/23 14:13:15;;;;;;;;;;;14.80;87.80;;;;;;5095816;27;20306;-73
2021/10/23 14:15:42;;;;;;;;;;;14.60;89.50;;;;;;5095619;27;19942;-73
2021/10/23 14:18:12;;;;;;;;;;;14.50;90.20;;;;;;5094968;27;20372;-73
2021/10/23 14:20:39;;;;;;;;;;;14.50;90.60;;;;;;5094718;27;20375;-73
2021/10/23 14:23:09;;;;;;;;;;;14.50;90.40;;;;;;5097447;27;20050;-73
2021/10/23 14:25:36;;;;;;;;;;;14.50;90.40;;;;;;5095377;27;19965;-72
2021/10/23 14:28:10;;;;;;;;;;;14.60;90.00;;;;;;5097903;27;20494;-72
2021/10/23 14:30:37;;;;;;;;;;;14.70;90.20;;;;;;5108420;27;19957;-73
2021/10/23 14:33:03;;;;;;;;;;;14.80;90.00;;;;;;5100942;27;19939;-74
2021/10/23 14:35:31;;;;;;;;;;;14.80;89.10;;;;;;5111159;27;19942;-74
2021/10/23 14:37:58;;;;;;;;;;;14.80;88.50;;;;;;5103300;27;19923;-72